Time;durP1;ratioP1;P1;durP2;ratioP2;P2;SDS_P1;SDS_P2;PMS_P1;PMS_P2;Temp;Humidity;BMP_temperature;BMP_pressure;BME280_temperature;BME280_humidity;BME280_pressure;Samples;Min_cycle;Max_cycle;Signal;HPM_P1;HPM_P2
2023/04/26 00:00:21;;;;;;;11.63;8.85;;;;;;;;;;4996351;28;20026;-73
2023/04/26 00:03:07;;;;;;;11.95;8.27;;;;;;;;;;4982495;28;20038;-73
2023/04/26 00:05:53;;;;;;;12.10;8.68;;;;;;;;;;4995466;28;20018;-72
2023/04/26 00:08:38;;;;;;;10.50;8.70;;;;;;;;;;4996768;28;20441;-72
2023/04/26 00:11:24;;;;;;;10.65;8.55;;;;;;;;;;4996163;28;20014;-73
2023/04/26 00:14:10;;;;;;;11.23;8.95;;;;;;;;;;4996090;28;20358;-72
2023/04/26 00:16:55;;;;;;;11.38;8.25;;;;;;;;;;4982842;28;20018;-73
2023/04/26 00:19:41;;;;;;;11.00;8.40;;;;;;;;;;4996774;28;20023;-72
2023/04/26 00:22:27;;;;;;;10.98;8.77;;;;;;;;;;4995416;28;20030;-73
2023/04/26 00:25:13;;;;;;;10.80;8.05;;;;;;;;;;4996322;28;20328;-73
2023/04/26 00:27:58;;;;;;;11.00;8.27;;;;;;;;;;4995899;28;20031;-72
2023/04/26 00:30:47;;;;;;;12.25;8.50;;;;;;;;;;4996161;28;20052;-73
2023/04/26 00:33:33;;;;;;;9.48;8.30;;;;;;;;;;4995015;28;20029;-74
2023/04/26 00:36:19;;;;;;;11.43;8.32;;;;;;;;;;4995575;28;20026;-73
2023/04/26 00:39:04;;;;;;;13.25;8.45;;;;;;;;;;4981879;28;20450;-73
2023/04/26 00:41:50;;;;;;;10.38;8.52;;;;;;;;;;4996602;28;20080;-73
2023/04/26 00:44:38;;;;;;;9.60;7.68;;;;;;;;;;4996346;28;20454;-73
2023/04/26 00:47:24;;;;;;;10.98;8.70;;;;;;;;;;4995962;28;20187;-72
2023/04/26 00:50:10;;;;;;;10.55;8.85;;;;;;;;;;4995580;28;20479;-73
2023/04/26 00:52:56;;;;;;;11.07;8.98;;;;;;;;;;4994781;28;20034;-73
2023/04/26 00:55:42;;;;;;;11.40;8.63;;;;;;;;;;4995866;28;20011;-72
2023/04/26 00:58:28;;;;;;;10.88;8.40;;;;;;;;;;4982438;28;20426;-73
2023/04/26 01:01:13;;;;;;;10.85;8.45;;;;;;;;;;4994658;28;20022;-72
2023/04/26 01:03:59;;;;;;;10.07;8.05;;;;;;;;;;4995710;28;20026;-73
2023/04/26 01:06:45;;;;;;;14.07;8.57;;;;;;;;;;4995530;28;20023;-73
2023/04/26 01:09:30;;;;;;;11.63;8.90;;;;;;;;;;5016949;28;20038;-72
2023/04/26 01:12:17;;;;;;;13.23;8.93;;;;;;;;;;5014365;28;20019;-73
2023/04/26 01:15:03;;;;;;;11.43;8.77;;;;;;;;;;4996018;28;20435;-73
2023/04/26 01:17:49;;;;;;;11.38;8.55;;;;;;;;;;4994748;28;20034;-73
2023/04/26 01:20:35;;;;;;;11.25;8.85;;;;;;;;;;4994674;28;20367;-72
2023/04/26 01:23:20;;;;;;;12.07;8.68;;;;;;;;;;4995386;28;20455;-73
2023/04/26 01:26:06;;;;;;;9.50;8.25;;;;;;;;;;4995657;28;20023;-72
2023/04/26 01:28:52;;;;;;;14.27;9.68;;;;;;;;;;4995671;28;20414;-72
2023/04/26 01:31:37;;;;;;;13.20;9.48;;;;;;;;;;4995929;28;20121;-73
2023/04/26 01:34:23;;;;;;;12.93;9.25;;;;;;;;;;4995730;28;20069;-73
2023/04/26 01:37:08;;;;;;;12.50;9.30;;;;;;;;;;4981310;28;20362;-73
2023/04/26 01:39:54;;;;;;;13.57;9.52;;;;;;;;;;4995392;28;20018;-73
2023/04/26 01:42:40;;;;;;;12.73;9.85;;;;;;;;;;4996102;28;20070;-73
2023/04/26 01:45:26;;;;;;;12.18;9.80;;;;;;;;;;4995429;28;20366;-74
2023/04/26 01:48:12;;;;;;;11.77;9.68;;;;;;;;;;4981294;28;20493;-72
2023/04/26 01:51:00;;;;;;;12.77;10.30;;;;;;;;;;4981469;28;20026;-72
2023/04/26 01:53:45;;;;;;;11.32;9.65;;;;;;;;;;4994933;28;20354;-72
2023/04/26 01:56:31;;;;;;;12.07;9.45;;;;;;;;;;4981651;28;20019;-73
2023/04/26 01:59:16;;;;;;;13.13;9.68;;;;;;;;;;4982211;28;20022;-73
2023/04/26 02:02:02;;;;;;;13.43;9.27;;;;;;;;;;4980787;28;20127;-72
2023/04/26 02:04:47;;;;;;;12.25;9.50;;;;;;;;;;4981363;28;20022;-72
2023/04/26 02:07:33;;;;;;;14.68;10.95;;;;;;;;;;4995274;28;20443;-73
2023/04/26 02:10:19;;;;;;;15.77;10.65;;;;;;;;;;4995589;28;20034;-72
2023/04/26 02:13:07;;;;;;;16.45;10.57;;;;;;;;;;4980727;28;20057;-74
2023/04/26 02:15:52;;;;;;;13.80;10.30;;;;;;;;;;4995179;28;20098;-74
2023/04/26 02:18:38;;;;;;;12.45;9.65;;;;;;;;;;4994911;28;20030;-73
2023/04/26 02:21:24;;;;;;;12.43;9.90;;;;;;;;;;4998348;28;20018;-73
2023/04/26 02:24:10;;;;;;;12.40;8.98;;;;;;;;;;4998676;28;20026;-72
2023/04/26 02:26:59;;;;;;;13.27;8.95;;;;;;;;;;4998538;28;20439;-73
2023/04/26 02:29:45;;;;;;;10.50;9.02;;;;;;;;;;4998781;28;20450;-74
2023/04/26 02:32:31;;;;;;;12.32;8.90;;;;;;;;;;4997296;28;20109;-72
2023/04/26 02:35:16;;;;;;;12.50;8.73;;;;;;;;;;4998382;28;20033;-73
2023/04/26 02:38:02;;;;;;;13.23;9.35;;;;;;;;;;4996824;28;20101;-73
2023/04/26 02:40:48;;;;;;;10.15;8.65;;;;;;;;;;4998306;28;20422;-73
2023/04/26 02:43:33;;;;;;;12.30;9.45;;;;;;;;;;4984178;28;20494;-73
2023/04/26 02:46:19;;;;;;;13.85;8.88;;;;;;;;;;4998114;28;20330;-73
2023/04/26 02:49:05;;;;;;;11.88;8.82;;;;;;;;;;4996929;28;20093;-72
2023/04/26 02:51:51;;;;;;;12.90;8.95;;;;;;;;;;4997883;28;20065;-72
2023/04/26 02:54:36;;;;;;;10.98;8.65;;;;;;;;;;4997712;28;20443;-73
2023/04/26 02:57:22;;;;;;;12.88;7.80;;;;;;;;;;4998050;28;20022;-73
2023/04/26 03:00:08;;;;;;;10.57;8.15;;;;;;;;;;4998052;28;20019;-72
2023/04/26 03:02:53;;;;;;;10.15;8.05;;;;;;;;;;4983676;28;20061;-72
2023/04/26 03:05:40;;;;;;;9.82;7.72;;;;;;;;;;4997387;28;20049;-73
2023/04/26 03:08:25;;;;;;;11.23;7.90;;;;;;;;;;4997696;28;20037;-74
2023/04/26 03:11:11;;;;;;;10.32;7.72;;;;;;;;;;4997398;28;20018;-72
2023/04/26 03:13:57;;;;;;;13.05;8.55;;;;;;;;;;4997477;28;20046;-72
2023/04/26 03:16:43;;;;;;;10.20;8.13;;;;;;;;;;4997272;28;20073;-73
2023/04/26 03:19:28;;;;;;;10.07;8.18;;;;;;;;;;4998913;28;20026;-73
2023/04/26 03:22:15;;;;;;;10.80;8.45;;;;;;;;;;4997916;28;20033;-73
2023/04/26 03:25:00;;;;;;;13.05;8.70;;;;;;;;;;4997809;28;20037;-71
2023/04/26 03:27:46;;;;;;;12.07;8.20;;;;;;;;;;4983335;28;20054;-73
2023/04/26 03:30:31;;;;;;;10.63;8.13;;;;;;;;;;4996476;28;20046;-72
2023/04/26 03:33:17;;;;;;;13.77;8.98;;;;;;;;;;4996268;28;20062;-72
2023/04/26 03:36:03;;;;;;;12.70;8.45;;;;;;;;;;4997556;28;20025;-73
2023/04/26 03:38:48;;;;;;;11.45;8.90;;;;;;;;;;4997163;28;20454;-73
2023/04/26 03:41:35;;;;;;;12.25;8.80;;;;;;;;;;4983479;28;20033;-72
2023/04/26 03:44:21;;;;;;;14.35;9.10;;;;;;;;;;4998402;28;20030;-73
2023/04/26 03:47:07;;;;;;;12.40;8.93;;;;;;;;;;4997074;28;20026;-72
2023/04/26 03:49:52;;;;;;;11.40;8.70;;;;;;;;;;4999778;28;20062;-77
2023/04/26 03:52:38;;;;;;;12.13;8.32;;;;;;;;;;5018589;28;20037;-73
2023/04/26 03:55:23;;;;;;;16.42;9.60;;;;;;;;;;4984047;28;20022;-73
2023/04/26 03:58:09;;;;;;;14.10;9.45;;;;;;;;;;4997087;28;20037;-72
2023/04/26 04:00:57;;;;;;;12.68;9.00;;;;;;;;;;4996498;28;20028;-72
2023/04/26 04:03:43;;;;;;;13.77;8.93;;;;;;;;;;4996296;28;20046;-72
2023/04/26 04:06:28;;;;;;;12.85;9.10;;;;;;;;;;4996467;28;20037;-72
2023/04/26 04:09:14;;;;;;;11.75;8.60;;;;;;;;;;4996719;28;20026;-74
2023/04/26 04:12:00;;;;;;;12.10;8.57;;;;;;;;;;5013872;28;20019;-72
2023/04/26 04:14:46;;;;;;;9.40;7.88;;;;;;;;;;4998835;28;20085;-72
2023/04/26 04:17:31;;;;;;;10.40;7.93;;;;;;;;;;4995265;28;20101;-72
2023/04/26 04:20:17;;;;;;;12.55;7.90;;;;;;;;;;4996334;28;20405;-73
2023/04/26 04:23:05;;;;;;;10.05;7.43;;;;;;;;;;4996109;28;20098;-73
2023/04/26 04:25:51;;;;;;;11.85;7.25;;;;;;;;;;4995016;28;20366;-73
2023/04/26 04:28:38;;;;;;;10.43;7.72;;;;;;;;;;4983237;28;20043;-72
2023/04/26 04:31:24;;;;;;;11.77;7.47;;;;;;;;;;4995655;28;20422;-72
2023/04/26 04:34:09;;;;;;;9.80;7.35;;;;;;;;;;4995926;28;20101;-72
2023/04/26 04:36:55;;;;;;;10.10;7.15;;;;;;;;;;4996521;28;20023;-73
2023/04/26 04:39:40;;;;;;;8.90;7.22;;;;;;;;;;4996384;28;20022;-72
2023/04/26 04:42:27;;;;;;;8.50;7.30;;;;;;;;;;4995604;28;20076;-72
2023/04/26 04:45:14;;;;;;;10.98;7.90;;;;;;;;;;4982722;28;20362;-73
2023/04/26 04:47:59;;;;;;;10.40;7.47;;;;;;;;;;4981639;28;20034;-73
2023/04/26 04:50:45;;;;;;;11.10;7.30;;;;;;;;;;4996748;28;20022;-72
2023/04/26 04:53:31;;;;;;;9.07;7.30;;;;;;;;;;4994765;28;20026;-72
2023/04/26 04:56:18;;;;;;;13.23;7.25;;;;;;;;;;4995824;28;20068;-72
2023/04/26 04:59:03;;;;;;;8.27;7.10;;;;;;;;;;4982276;28;20037;-72
2023/04/26 05:01:49;;;;;;;9.25;7.30;;;;;;;;;;4983370;28;20030;-72
2023/04/26 05:04:35;;;;;;;10.68;7.53;;;;;;;;;;4994367;28;20037;-72
2023/04/26 05:07:21;;;;;;;8.52;7.13;;;;;;;;;;4995530;28;20034;-74
2023/04/26 05:10:07;;;;;;;10.68;7.90;;;;;;;;;;4995578;28;20023;-72
2023/04/26 05:12:53;;;;;;;11.25;8.40;;;;;;;;;;4982144;28;20071;-72
2023/04/26 05:15:38;;;;;;;10.70;7.88;;;;;;;;;;4982072;28;20030;-72
2023/04/26 05:18:24;;;;;;;10.23;7.97;;;;;;;;;;4982558;28;20472;-73
2023/04/26 05:21:10;;;;;;;12.50;9.32;;;;;;;;;;4996545;28;20053;-72
2023/04/26 05:23:55;;;;;;;13.15;8.23;;;;;;;;;;4995610;28;20370;-73
2023/04/26 05:26:41;;;;;;;10.45;7.80;;;;;;;;;;4995178;28;20022;-72
2023/04/26 05:29:30;;;;;;;12.70;8.48;;;;;;;;;;4995899;28;20077;-72
2023/04/26 05:32:15;;;;;;;12.93;7.75;;;;;;;;;;4995707;28;20046;-73
2023/04/26 05:35:01;;;;;;;13.75;9.63;;;;;;;;;;4995096;28;20026;-73
2023/04/26 05:37:47;;;;;;;9.45;7.07;;;;;;;;;;4982640;28;20030;-72
2023/04/26 05:40:32;;;;;;;9.40;7.47;;;;;;;;;;4995306;28;20363;-71
2023/04/26 05:43:18;;;;;;;11.60;7.45;;;;;;;;;;4995395;28;20336;-72
2023/04/26 05:46:04;;;;;;;10.50;7.22;;;;;;;;;;4993943;28;20347;-72
2023/04/26 05:48:49;;;;;;;10.27;7.00;;;;;;;;;;4994330;28;20050;-71
2023/04/26 05:51:35;;;;;;;9.65;6.88;;;;;;;;;;4994624;28;20331;-71
2023/04/26 05:54:21;;;;;;;9.48;6.80;;;;;;;;;;4995542;28;20019;-74
2023/04/26 05:57:06;;;;;;;8.57;6.80;;;;;;;;;;4997640;28;20391;-71
2023/04/26 05:59:52;;;;;;;8.38;6.15;;;;;;;;;;4999410;28;20036;-72
2023/04/26 06:02:37;;;;;;;9.55;7.15;;;;;;;;;;4999100;28;20030;-71
2023/04/26 06:05:23;;;;;;;11.13;6.93;;;;;;;;;;4998863;28;20022;-72
2023/04/26 06:08:08;;;;;;;9.55;7.03;;;;;;;;;;4998851;28;20026;-72
2023/04/26 06:10:54;;;;;;;8.63;6.68;;;;;;;;;;4984657;28;20045;-73
2023/04/26 06:13:40;;;;;;;7.82;6.68;;;;;;;;;;4984823;28;20351;-71
2023/04/26 06:16:25;;;;;;;10.52;7.63;;;;;;;;;;4998491;28;20050;-72
2023/04/26 06:19:11;;;;;;;9.90;6.57;;;;;;;;;;4985565;28;20022;-70
2023/04/26 06:21:56;;;;;;;8.75;6.80;;;;;;;;;;4999191;28;20018;-70
2023/04/26 06:24:42;;;;;;;11.75;7.00;;;;;;;;;;4984417;28;20034;-70
2023/04/26 06:27:27;;;;;;;11.32;6.57;;;;;;;;;;4998250;28;20359;-72
2023/04/26 06:30:13;;;;;;;8.50;6.88;;;;;;;;;;4984345;28;20125;-72
2023/04/26 06:32:59;;;;;;;11.32;6.97;;;;;;;;;;4998139;28;20045;-72
2023/04/26 06:35:45;;;;;;;7.95;6.03;;;;;;;;;;4985447;28;20018;-72
2023/04/26 06:38:31;;;;;;;10.98;6.20;;;;;;;;;;4997629;28;20105;-71
2023/04/26 06:41:16;;;;;;;7.00;6.00;;;;;;;;;;4999909;28;20034;-71
2023/04/26 06:44:02;;;;;;;12.10;6.40;;;;;;;;;;5003379;28;20113;-72
2023/04/26 06:46:48;;;;;;;8.07;6.20;;;;;;;;;;4998854;28;20037;-72
2023/04/26 06:49:34;;;;;;;11.50;6.55;;;;;;;;;;4996654;28;20057;-73
2023/04/26 06:52:20;;;;;;;8.90;5.60;;;;;;;;;;4998181;28;20018;-73
2023/04/26 06:55:06;;;;;;;9.82;5.72;;;;;;;;;;4984854;28;20023;-72
2023/04/26 06:57:51;;;;;;;7.93;5.97;;;;;;;;;;4983335;28;20014;-72
2023/04/26 07:00:37;;;;;;;9.43;5.07;;;;;;;;;;4984471;28;20030;-73
2023/04/26 07:03:23;;;;;;;8.90;5.35;;;;;;;;;;4994578;28;20026;-76
2023/04/26 07:06:09;;;;;;;8.70;5.68;;;;;;;;;;4997532;28;20026;-73
2023/04/26 07:08:55;;;;;;;8.13;5.93;;;;;;;;;;4996641;28;20022;-73
2023/04/26 07:11:40;;;;;;;7.65;5.15;;;;;;;;;;4997661;28;20080;-72
2023/04/26 07:14:26;;;;;;;7.28;5.10;;;;;;;;;;4997246;28;20502;-72
2023/04/26 07:17:11;;;;;;;7.53;4.95;;;;;;;;;;4997612;28;20041;-73
2023/04/26 07:19:57;;;;;;;6.32;5.00;;;;;;;;;;4998203;28;20334;-72
2023/04/26 07:22:43;;;;;;;6.60;4.05;;;;;;;;;;4996381;28;20439;-73
2023/04/26 07:25:28;;;;;;;4.45;3.88;;;;;;;;;;4997698;28;20035;-73
2023/04/26 07:28:14;;;;;;;6.28;3.88;;;;;;;;;;4997853;28;20426;-73
2023/04/26 07:31:00;;;;;;;19.55;3.80;;;;;;;;;;4996732;28;20058;-73
2023/04/26 07:33:46;;;;;;;6.93;3.60;;;;;;;;;;4995814;28;20022;-72
2023/04/26 07:36:31;;;;;;;4.25;3.20;;;;;;;;;;4997560;28;20026;-72
2023/04/26 07:39:17;;;;;;;4.03;2.75;;;;;;;;;;4996810;28;20022;-72
2023/04/26 07:42:02;;;;;;;4.35;2.90;;;;;;;;;;4997316;28;20435;-72
2023/04/26 07:44:48;;;;;;;3.35;2.85;;;;;;;;;;4982147;28;20034;-72
2023/04/26 07:47:34;;;;;;;7.70;2.75;;;;;;;;;;4996704;28;20351;-72
2023/04/26 07:50:19;;;;;;;6.22;2.88;;;;;;;;;;4982424;28;20026;-72
2023/04/26 07:53:05;;;;;;;3.65;2.80;;;;;;;;;;4983005;28;20125;-72
2023/04/26 07:55:51;;;;;;;3.58;2.72;;;;;;;;;;4996776;28;20057;-73
2023/04/26 07:58:38;;;;;;;5.38;2.97;;;;;;;;;;4996811;28;20394;-73
2023/04/26 08:01:23;;;;;;;4.57;2.80;;;;;;;;;;4996572;28;20045;-71
2023/04/26 08:04:09;;;;;;;3.28;2.90;;;;;;;;;;4996471;28;20100;-73
2023/04/26 08:06:55;;;;;;;4.03;3.22;;;;;;;;;;4996415;28;20065;-72
2023/04/26 08:09:41;;;;;;;4.40;2.95;;;;;;;;;;4996319;28;20023;-72
2023/04/26 08:12:26;;;;;;;4.28;3.30;;;;;;;;;;4982334;28;20414;-71
2023/04/26 08:15:12;;;;;;;8.15;3.22;;;;;;;;;;4982842;28;20027;-73
2023/04/26 08:17:58;;;;;;;3.17;2.80;;;;;;;;;;4982108;28;20033;-72
2023/04/26 08:20:43;;;;;;;4.82;3.70;;;;;;;;;;4994874;28;20030;-72
2023/04/26 08:23:34;;;;;;;3.95;2.78;;;;;;;;;;4982274;28;20022;-73
2023/04/26 08:26:20;;;;;;;5.32;2.90;;;;;;;;;;4996016;28;20026;-73
2023/04/26 08:29:06;;;;;;;4.47;2.45;;;;;;;;;;4982009;28;20416;-73
2023/04/26 08:31:52;;;;;;;3.50;2.60;;;;;;;;;;4994344;28;20383;-72
2023/04/26 08:34:37;;;;;;;5.40;2.53;;;;;;;;;;4995202;28;20022;-72
2023/04/26 08:37:23;;;;;;;6.20;2.40;;;;;;;;;;4994792;28;20014;-72
2023/04/26 08:40:09;;;;;;;3.35;2.40;;;;;;;;;;4995255;28;20053;-73
2023/04/26 08:42:54;;;;;;;4.18;2.28;;;;;;;;;;4996558;28;20112;-73
2023/04/26 08:45:41;;;;;;;5.22;2.33;;;;;;;;;;4995796;28;20343;-72
2023/04/26 08:48:27;;;;;;;2.85;1.83;;;;;;;;;;4995730;28;20106;-71
2023/04/26 08:51:13;;;;;;;8.07;2.67;;;;;;;;;;4995461;28;20554;-72
2023/04/26 08:53:59;;;;;;;2.95;2.03;;;;;;;;;;4996281;28;20023;-73
2023/04/26 08:56:46;;;;;;;6.57;2.30;;;;;;;;;;4995800;28;20030;-73
2023/04/26 08:59:32;;;;;;;3.30;2.55;;;;;;;;;;4995562;28;20030;-72
2023/04/26 09:02:18;;;;;;;7.07;2.40;;;;;;;;;;4995849;28;20030;-73
2023/04/26 09:05:05;;;;;;;4.13;2.10;;;;;;;;;;4995438;28;20030;-73
2023/04/26 09:07:55;;;;;;;3.55;2.40;;;;;;;;;;4995527;28;20022;-73
2023/04/26 09:10:41;;;;;;;4.72;2.50;;;;;;;;;;4995091;28;20034;-73
2023/04/26 09:13:28;;;;;;;2.10;1.77;;;;;;;;;;4981133;28;20254;-72
2023/04/26 09:16:14;;;;;;;2.67;2.03;;;;;;;;;;4995572;28;20023;-71
2023/04/26 09:18:59;;;;;;;2.10;1.90;;;;;;;;;;4981967;28;20037;-73
2023/04/26 09:21:45;;;;;;;3.25;1.98;;;;;;;;;;4995654;28;20060;-73
2023/04/26 09:24:45;;;;;;;8.85;2.17;;;;;;;;;;4995059;28;20084;-72
2023/04/26 09:27:32;;;;;;;4.47;1.73;;;;;;;;;;4999163;28;20022;-72
2023/04/26 09:30:19;;;;;;;3.20;2.13;;;;;;;;;;4998491;28;20138;-73
2023/04/26 09:33:08;;;;;;;4.03;2.10;;;;;;;;;;4999241;28;20018;-73
2023/04/26 09:35:53;;;;;;;3.38;2.40;;;;;;;;;;4985968;28;20018;-73
2023/04/26 09:38:42;;;;;;;4.60;2.63;;;;;;;;;;4999296;28;20088;-72
2023/04/26 09:41:43;;;;;;;2.72;2.22;;;;;;;;;;5000117;28;20034;-73
2023/04/26 09:44:30;;;;;;;3.90;2.30;;;;;;;;;;4999991;28;20036;-74
2023/04/26 09:47:16;;;;;;;2.72;2.20;;;;;;;;;;4986381;28;20023;-74
2023/04/26 09:50:01;;;;;;;3.80;1.80;;;;;;;;;;5000506;28;20057;-72
2023/04/26 09:52:47;;;;;;;5.18;2.28;;;;;;;;;;4999846;28;20027;-73
2023/04/26 09:55:33;;;;;;;4.00;2.35;;;;;;;;;;5001092;28;20041;-72
2023/04/26 09:58:18;;;;;;;3.70;2.28;;;;;;;;;;4991714;28;20037;-73
2023/04/26 10:01:05;;;;;;;6.88;2.47;;;;;;;;;;4986608;28;20022;-72
2023/04/26 10:03:51;;;;;;;3.60;2.17;;;;;;;;;;4985135;28;20096;-72
2023/04/26 10:06:37;;;;;;;6.22;2.38;;;;;;;;;;4985362;28;20414;-73
2023/04/26 10:09:23;;;;;;;3.15;1.80;;;;;;;;;;4998832;28;20086;-70
2023/04/26 10:12:09;;;;;;;2.65;1.70;;;;;;;;;;4999310;28;20037;-72
2023/04/26 10:14:56;;;;;;;12.73;2.55;;;;;;;;;;4999498;28;20022;-73
2023/04/26 10:17:41;;;;;;;2.72;1.63;;;;;;;;;;4985465;28;20018;-73
2023/04/26 10:20:28;;;;;;;3.65;1.35;;;;;;;;;;4998555;28;20113;-73
2023/04/26 10:23:26;;;;;;;3.97;1.63;;;;;;;;;;4997134;28;20043;-72
2023/04/26 10:26:30;;;;;;;3.30;1.65;;;;;;;;;;4997194;28;20139;-73
2023/04/26 10:29:16;;;;;;;2.90;1.50;;;;;;;;;;4996381;28;20050;-72
2023/04/26 10:32:04;;;;;;;2.47;1.50;;;;;;;;;;4998186;28;20052;-73
2023/04/26 10:35:11;;;;;;;2.47;1.40;;;;;;;;;;4985159;28;20375;-73
2023/04/26 10:37:59;;;;;;;2.67;1.75;;;;;;;;;;4997899;28;20065;-72
2023/04/26 10:40:45;;;;;;;5.45;2.55;;;;;;;;;;4997475;28;20422;-72
2023/04/26 10:43:31;;;;;;;2.45;1.40;;;;;;;;;;4984967;28;20097;-72
2023/04/26 10:46:36;;;;;;;1.98;1.75;;;;;;;;;;4999081;28;20130;-72
2023/04/26 10:49:22;;;;;;;3.80;1.45;;;;;;;;;;4984340;28;20031;-73
2023/04/26 10:52:11;;;;;;;1.85;1.63;;;;;;;;;;4998316;28;20030;-73
2023/04/26 10:54:58;;;;;;;3.03;1.38;;;;;;;;;;4996943;28;20023;-72
2023/04/26 10:57:55;;;;;;;4.35;1.63;;;;;;;;;;4984365;28;20014;-73
2023/04/26 11:01:00;;;;;;;7.75;1.75;;;;;;;;;;4996454;28;20038;-73
2023/04/26 11:04:09;;;;;;;4.20;1.50;;;;;;;;;;4997011;28;20458;-73
2023/04/26 11:06:58;;;;;;;7.28;1.80;;;;;;;;;;4982571;28;20030;-73
2023/04/26 11:09:51;;;;;;;6.15;1.50;;;;;;;;;;4983813;28;20038;-73
2023/04/26 11:12:40;;;;;;;3.17;1.50;;;;;;;;;;4998357;28;20019;-73
2023/04/26 11:15:26;;;;;;;1.77;1.33;;;;;;;;;;4983677;28;20355;-73
2023/04/26 11:18:11;;;;;;;2.00;1.40;;;;;;;;;;4996187;28;20046;-73
2023/04/26 11:20:57;;;;;;;2.33;1.42;;;;;;;;;;4996975;28;20115;-73
2023/04/26 11:23:51;;;;;;;2.22;1.30;;;;;;;;;;4984063;28;20101;-72
2023/04/26 11:26:37;;;;;;;2.45;1.30;;;;;;;;;;4997072;28;20026;-72
2023/04/26 11:29:23;;;;;;;1.85;1.40;;;;;;;;;;4997215;28;20054;-72
2023/04/26 11:32:09;;;;;;;3.85;1.40;;;;;;;;;;4997028;28;20348;-71
2023/04/26 11:34:58;;;;;;;3.22;1.50;;;;;;;;;;4997406;28;20029;-73
2023/04/26 11:37:44;;;;;;;4.03;1.30;;;;;;;;;;4997479;28;20022;-72
2023/04/26 11:40:31;;;;;;;3.72;1.40;;;;;;;;;;4983063;28;20022;-73
2023/04/26 11:43:16;;;;;;;1.30;1.10;;;;;;;;;;4997148;28;20030;-72
2023/04/26 11:46:03;;;;;;;1.40;1.30;;;;;;;;;;4996313;28;20026;-72
2023/04/26 11:48:49;;;;;;;1.85;1.25;;;;;;;;;;4997021;28;20048;-72
2023/04/26 11:51:35;;;;;;;3.35;1.50;;;;;;;;;;4996576;28;20512;-72
2023/04/26 11:54:30;;;;;;;1.60;1.23;;;;;;;;;;4969348;28;20034;-73
2023/04/26 11:57:16;;;;;;;1.60;1.23;;;;;;;;;;4997344;28;20026;-73
2023/04/26 12:00:13;;;;;;;7.10;1.45;;;;;;;;;;4958870;28;20027;-73
2023/04/26 12:03:04;;;;;;;1.90;1.20;;;;;;;;;;4976003;28;20026;-73
2023/04/26 12:05:53;;;;;;;3.70;1.48;;;;;;;;;;4976598;28;20026;-72
2023/04/26 12:08:39;;;;;;;1.83;1.40;;;;;;;;;;4976386;28;20466;-73
2023/04/26 12:11:25;;;;;;;1.80;1.30;;;;;;;;;;4976304;28;20117;-72
2023/04/26 12:14:14;;;;;;;2.05;1.38;;;;;;;;;;4962354;28;20019;-73
2023/04/26 12:17:01;;;;;;;7.63;1.48;;;;;;;;;;4963126;28;20414;-73
2023/04/26 12:19:48;;;;;;;4.07;1.50;;;;;;;;;;4976617;28;20092;-73
2023/04/26 12:22:34;;;;;;;3.97;1.65;;;;;;;;;;4962379;28;20027;-73
2023/04/26 12:25:19;;;;;;;2.38;1.30;;;;;;;;;;4976998;28;20396;-72
2023/04/26 12:28:10;;;;;;;1.83;1.27;;;;;;;;;;4977132;28;20081;-73
2023/04/26 12:30:56;;;;;;;1.90;1.60;;;;;;;;;;4961817;28;20186;-74
2023/04/26 12:33:41;;;;;;;2.55;1.20;;;;;;;;;;4963535;28;20023;-73
2023/04/26 12:36:27;;;;;;;4.47;1.67;;;;;;;;;;4977709;28;20050;-73
2023/04/26 12:39:14;;;;;;;3.67;1.40;;;;;;;;;;4977159;28;20065;-73
2023/04/26 12:42:00;;;;;;;2.97;1.20;;;;;;;;;;4976404;28;20442;-72
2023/04/26 12:44:45;;;;;;;2.08;1.30;;;;;;;;;;4977750;28;20026;-73
2023/04/26 12:47:31;;;;;;;5.18;1.33;;;;;;;;;;4989975;28;20031;-72
2023/04/26 12:50:16;;;;;;;1.35;1.00;;;;;;;;;;4970168;28;20022;-72
2023/04/26 12:53:02;;;;;;;1.45;1.20;;;;;;;;;;4979965;28;20015;-73
2023/04/26 12:55:48;;;;;;;1.48;0.95;;;;;;;;;;4978737;28;20034;-72
2023/04/26 12:58:36;;;;;;;1.15;1.00;;;;;;;;;;4982780;28;20041;-72
2023/04/26 13:01:21;;;;;;;6.50;1.40;;;;;;;;;;4984050;28;20022;-72
2023/04/26 13:04:08;;;;;;;1.50;0.90;;;;;;;;;;4995346;28;20034;-73
2023/04/26 13:06:54;;;;;;;1.50;1.20;;;;;;;;;;5000592;28;20026;-73
2023/04/26 13:09:40;;;;;;;3.08;1.33;;;;;;;;;;4998249;28;20355;-72
2023/04/26 13:12:26;;;;;;;1.80;1.00;;;;;;;;;;4995879;28;20029;-73
2023/04/26 13:15:12;;;;;;;1.23;1.13;;;;;;;;;;4982094;28;20307;-73
2023/04/26 13:17:57;;;;;;;1.88;1.10;;;;;;;;;;4996276;28;20080;-73
2023/04/26 13:20:43;;;;;;;1.13;1.00;;;;;;;;;;4995199;28;20050;-72
2023/04/26 13:23:29;;;;;;;3.17;1.33;;;;;;;;;;4995617;28;20019;-72
2023/04/26 13:26:16;;;;;;;3.42;1.40;;;;;;;;;;4994095;28;20045;-74
2023/04/26 13:29:03;;;;;;;4.47;1.58;;;;;;;;;;4995953;28;20435;-73
2023/04/26 13:31:49;;;;;;;2.03;1.00;;;;;;;;;;4994508;28;20062;-73
2023/04/26 13:34:34;;;;;;;2.95;1.30;;;;;;;;;;4989504;28;20022;-72
2023/04/26 13:37:20;;;;;;;1.50;0.95;;;;;;;;;;4976501;28;20118;-75
2023/04/26 13:40:06;;;;;;;2.38;1.00;;;;;;;;;;4976782;28;20109;-71
2023/04/26 13:42:52;;;;;;;1.30;1.10;;;;;;;;;;4961375;28;20074;-72
2023/04/26 13:45:37;;;;;;;2.50;1.30;;;;;;;;;;4976221;28;20030;-71
2023/04/26 13:48:23;;;;;;;3.88;2.58;;;;;;;;;;4961215;28;20023;-71
2023/04/26 13:51:10;;;;;;;32.75;3.42;;;;;;;;;;4976688;28;20027;-71
2023/04/26 13:53:55;;;;;;;1.38;1.10;;;;;;;;;;4974343;28;20077;-71
2023/04/26 13:56:41;;;;;;;2.63;1.20;;;;;;;;;;4976268;28;20011;-72
2023/04/26 13:59:26;;;;;;;4.72;1.60;;;;;;;;;;4976500;28;20427;-72
2023/04/26 14:02:12;;;;;;;1.67;1.00;;;;;;;;;;4976660;28;20026;-71
2023/04/26 14:04:58;;;;;;;3.22;1.20;;;;;;;;;;4976512;28;20058;-71
2023/04/26 14:07:43;;;;;;;3.20;1.20;;;;;;;;;;4976205;28;20086;-71
2023/04/26 14:10:29;;;;;;;1.95;1.10;;;;;;;;;;4974433;28;20023;-72
2023/04/26 14:13:15;;;;;;;5.70;1.08;;;;;;;;;;4975386;28;20035;-72
2023/04/26 14:16:00;;;;;;;1.05;0.95;;;;;;;;;;4978037;28;20087;-72
2023/04/26 14:18:47;;;;;;;2.22;1.00;;;;;;;;;;4978680;28;20418;-72
2023/04/26 14:21:33;;;;;;;1.67;1.00;;;;;;;;;;4979929;28;20469;-72
2023/04/26 14:24:18;;;;;;;4.75;1.10;;;;;;;;;;4978847;28;20038;-70
2023/04/26 14:27:04;;;;;;;3.05;1.10;;;;;;;;;;4979700;28;20023;-71
2023/04/26 14:29:49;;;;;;;2.60;1.25;;;;;;;;;;4978682;28;20037;-72
2023/04/26 14:32:35;;;;;;;1.23;1.10;;;;;;;;;;4965165;28;20116;-71
2023/04/26 14:35:21;;;;;;;1.85;1.15;;;;;;;;;;4978527;28;20026;-71
2023/04/26 14:38:06;;;;;;;3.50;0.98;;;;;;;;;;4979239;28;20026;-71
2023/04/26 14:40:52;;;;;;;2.03;1.10;;;;;;;;;;4977740;28;20560;-72
2023/04/26 14:43:38;;;;;;;2.42;1.13;;;;;;;;;;4978108;28;20030;-72
2023/04/26 14:46:23;;;;;;;4.88;1.63;;;;;;;;;;4979246;28;20026;-72
2023/04/26 14:49:09;;;;;;;5.25;1.30;;;;;;;;;;4964683;28;20063;-71
2023/04/26 14:51:54;;;;;;;1.40;1.30;;;;;;;;;;4978295;28;20031;-70
2023/04/26 14:54:40;;;;;;;1.20;1.10;;;;;;;;;;4964032;28;20022;-72
2023/04/26 14:57:26;;;;;;;5.00;1.70;;;;;;;;;;4977999;28;20465;-71
2023/04/26 15:00:14;;;;;;;16.08;2.33;;;;;;;;;;4978550;28;20037;-72
2023/04/26 15:03:00;;;;;;;20.50;3.10;;;;;;;;;;4977742;28;20030;-70
2023/04/26 15:05:46;;;;;;;6.80;2.20;;;;;;;;;;4977936;28;20035;-71
2023/04/26 15:08:31;;;;;;;5.88;2.35;;;;;;;;;;4977692;28;20082;-72
2023/04/26 15:11:17;;;;;;;9.75;2.20;;;;;;;;;;4978741;28;20035;-71
2023/04/26 15:14:03;;;;;;;8.80;2.80;;;;;;;;;;4963877;28;20030;-71
2023/04/26 15:16:48;;;;;;;5.70;3.08;;;;;;;;;;4962794;28;20094;-71
2023/04/26 15:19:34;;;;;;;13.40;3.22;;;;;;;;;;4976935;28;20105;-72
2023/04/26 15:22:20;;;;;;;13.07;3.30;;;;;;;;;;4964415;28;20458;-73
2023/04/26 15:25:06;;;;;;;19.85;3.50;;;;;;;;;;4976929;28;20117;-72
2023/04/26 15:27:52;;;;;;;8.43;3.20;;;;;;;;;;4978090;28;20423;-71
2023/04/26 15:30:37;;;;;;;10.20;2.85;;;;;;;;;;4976859;28;20046;-71
2023/04/26 15:33:23;;;;;;;7.85;2.80;;;;;;;;;;4996100;28;20029;-71
2023/04/26 15:36:09;;;;;;;7.20;2.58;;;;;;;;;;4982250;28;20077;-71
2023/04/26 15:38:54;;;;;;;8.93;2.30;;;;;;;;;;4963931;28;20439;-72
2023/04/26 15:41:40;;;;;;;5.55;2.20;;;;;;;;;;4979050;28;20041;-71
2023/04/26 15:44:26;;;;;;;7.88;2.50;;;;;;;;;;4977394;28;20366;-72
2023/04/26 15:47:12;;;;;;;5.38;1.80;;;;;;;;;;4977302;28;20034;-72
2023/04/26 15:50:02;;;;;;;6.03;2.00;;;;;;;;;;4963329;28;20023;-72
2023/04/26 15:52:48;;;;;;;3.00;1.77;;;;;;;;;;4979451;28;20050;-75
2023/04/26 15:55:33;;;;;;;4.82;1.92;;;;;;;;;;4978378;28;20011;-75
2023/04/26 15:58:19;;;;;;;5.50;2.10;;;;;;;;;;4976500;28;20498;-76
2023/04/26 16:01:05;;;;;;;3.65;2.00;;;;;;;;;;4978092;28;20022;-70
2023/04/26 16:03:51;;;;;;;5.28;1.80;;;;;;;;;;4976622;28;20106;-71
2023/04/26 16:06:37;;;;;;;5.38;1.80;;;;;;;;;;4977936;28;20117;-75
2023/04/26 16:09:22;;;;;;;4.00;1.70;;;;;;;;;;4962610;28;20034;-74
2023/04/26 16:12:08;;;;;;;4.03;1.95;;;;;;;;;;4977319;28;20022;-71
2023/04/26 16:14:54;;;;;;;5.97;2.47;;;;;;;;;;4978006;28;20030;-76
2023/04/26 16:17:39;;;;;;;4.40;1.75;;;;;;;;;;4963550;28;20166;-74
2023/04/26 16:20:25;;;;;;;2.67;1.58;;;;;;;;;;4963574;28;20026;-74
2023/04/26 16:23:11;;;;;;;2.90;1.90;;;;;;;;;;4962659;28;20027;-78
2023/04/26 16:25:56;;;;;;;3.65;1.80;;;;;;;;;;4976787;28;20030;-73
2023/04/26 16:28:42;;;;;;;3.83;1.92;;;;;;;;;;4962348;28;20414;-75
2023/04/26 16:31:28;;;;;;;4.55;1.80;;;;;;;;;;4975860;28;20058;-74